Time;durP1;ratioP1;P1;durP2;ratioP2;P2;SDS_P1;SDS_P2;PMS_P1;PMS_P2;Temp;Humidity;BMP_temperature;BMP_pressure;BME280_temperature;BME280_humidity;BME280_pressure;Samples;Min_cycle;Max_cycle;Signal;HPM_P1;HPM_P2
2022/04/27 00:01:39;;;;;;;32.90;19.50;;;;;;;1.57;99.81;99701.05;103564;1303;23555;-28
2022/04/27 00:04:08;;;;;;;29.60;17.00;;;;;;;1.59;99.69;99701.55;103512;1303;22503;-25
2022/04/27 00:06:37;;;;;;;35.70;18.10;;;;;;;1.56;99.56;99701.27;103550;1303;24983;-26
2022/04/27 00:09:06;;;;;;;25.80;16.70;;;;;;;1.52;99.20;99702.20;103547;1303;25027;-29
2022/04/27 00:11:35;;;;;;;29.80;16.00;;;;;;;1.48;98.60;99703.91;103514;1303;24014;-25
2022/04/27 00:14:04;;;;;;;24.20;14.60;;;;;;;1.46;98.76;99707.14;103481;1303;25104;-29
2022/04/27 00:16:33;;;;;;;52.60;21.00;;;;;;;1.44;98.97;99706.41;103397;1303;23755;-27
2022/04/27 00:19:02;;;;;;;92.20;27.60;;;;;;;1.41;99.84;99702.52;103561;1303;25008;-25
2022/04/27 00:21:31;;;;;;;47.70;20.10;;;;;;;1.38;99.92;99706.55;103582;1302;22513;-25
2022/04/27 00:24:00;;;;;;;34.40;17.60;;;;;;;1.38;100.00;99709.02;103594;1303;25248;-25
2022/04/27 00:26:29;;;;;;;60.60;22.70;;;;;;;1.31;99.63;99708.20;103567;1303;23776;-29
2022/04/27 00:28:58;;;;;;;52.90;20.80;;;;;;;1.24;99.26;99706.30;103549;1303;25137;-24
2022/04/27 00:34:36;;;;;;;39.70;18.90;;;;;;;1.24;98.92;99704.73;103531;1303;25877;-25
2022/04/27 00:37:05;;;;;;;50.30;21.80;;;;;;;1.25;99.30;99705.30;103525;1303;22525;-25
2022/04/27 00:39:34;;;;;;;82.90;27.70;;;;;;;1.24;99.62;99707.50;103546;1303;23799;-28
2022/04/27 00:44:44;;;;;;;41.10;16.20;;;;;;;1.20;98.63;99707.49;103541;1303;25085;-26
2022/04/27 00:47:13;;;;;;;30.10;12.70;;;;;;;1.19;98.68;99709.88;103581;1303;26279;-26
2022/04/27 00:49:45;;;;;;;23.70;12.30;;;;;;;1.21;99.31;99708.14;103549;1303;24995;-28
2022/04/27 00:52:15;;;;;;;45.40;17.60;;;;;;;1.21;99.88;99711.67;103573;1303;22518;-29
2022/04/27 00:54:46;;;;;;;110.50;33.20;;;;;;;1.22;99.94;99709.78;103608;1303;22947;-24
2022/04/27 00:57:16;;;;;;;95.70;31.10;;;;;;;1.21;99.28;99709.73;103572;1303;25123;-24
2022/04/27 00:59:45;;;;;;;75.40;25.50;;;;;;;1.15;99.55;99709.33;103593;1302;23823;-26
2022/04/27 01:02:16;;;;;;;48.30;14.50;;;;;;;1.14;100.00;99710.30;103585;1303;24215;-26
2022/04/27 01:04:45;;;;;;;48.90;18.00;;;;;;;1.17;100.00;99710.23;103567;1303;23637;-25
2022/04/27 01:07:14;;;;;;;56.70;21.40;;;;;;;1.15;100.00;99711.08;103544;1303;22584;-25
2022/04/27 01:09:43;;;;;;;56.10;20.60;;;;;;;1.13;100.00;99714.45;103505;1303;22729;-29
2022/04/27 01:12:12;;;;;;;48.20;18.60;;;;;;;1.07;99.88;99714.48;103537;1303;23866;-25
2022/04/27 01:14:42;;;;;;;44.20;19.60;;;;;;;1.00;99.95;99714.86;103561;1303;23631;-25
2022/04/27 01:17:11;;;;;;;56.80;25.00;;;;;;;1.00;100.00;99721.52;103557;1303;25009;-29
2022/04/27 01:19:40;;;;;;;61.60;25.80;;;;;;;0.94;100.00;99723.12;103586;1303;22509;-27
2022/04/27 01:22:09;;;;;;;45.40;21.00;;;;;;;0.91;100.00;99727.40;103535;1303;23609;-28
2022/04/27 01:24:40;;;;;;;76.00;29.90;;;;;;;0.91;100.00;99726.34;103599;1303;26134;-30
2022/04/27 01:27:09;;;;;;;53.50;24.90;;;;;;;0.92;100.00;99725.39;103626;1303;23640;-25
2022/04/27 01:29:38;;;;;;;70.00;27.50;;;;;;;0.92;100.00;99724.33;103583;1303;23952;-26
2022/04/27 01:32:07;;;;;;;53.30;26.10;;;;;;;0.94;100.00;99722.05;103549;1303;25232;-25
2022/04/27 01:34:36;;;;;;;45.10;19.60;;;;;;;0.93;100.00;99721.74;103548;1303;24249;-29
2022/04/27 01:39:39;;;;;;;28.40;14.70;;;;;;;0.79;100.00;99717.95;103522;1303;23454;-24
2022/04/27 01:42:08;;;;;;;25.70;11.50;;;;;;;0.74;100.00;99723.84;103527;1302;24218;-25
2022/04/27 01:44:37;;;;;;;17.60;8.30;;;;;;;0.73;100.00;99723.41;103554;1303;23042;-27
2022/04/27 01:47:06;;;;;;;21.90;12.70;;;;;;;0.74;100.00;99727.26;103559;1303;25009;-29
2022/04/27 01:49:35;;;;;;;32.30;14.00;;;;;;;0.70;100.00;99725.25;103536;1303;23732;-26
2022/04/27 01:54:37;;;;;;;41.50;24.50;;;;;;;0.55;100.00;99728.45;103527;1303;24211;-25
2022/04/27 01:57:07;;;;;;;47.80;28.10;;;;;;;0.48;99.91;99729.54;103555;1303;24980;-25
2022/04/27 01:59:37;;;;;;;28.30;17.80;;;;;;;0.43;99.95;99730.11;103621;1303;22628;-28
2022/04/27 02:02:08;;;;;;;25.90;16.90;;;;;;;0.41;100.00;99728.83;103523;1303;22495;-26
2022/04/27 02:04:39;;;;;;;31.20;16.30;;;;;;;0.42;100.00;99726.60;103429;1303;22498;-29
2022/04/27 02:07:08;;;;;;;28.90;16.00;;;;;;;0.42;100.00;99724.20;103548;1303;24196;-31
2022/04/27 02:09:37;;;;;;;24.70;13.10;;;;;;;0.42;100.00;99725.58;103594;1303;24301;-27
2022/04/27 02:12:07;;;;;;;55.80;22.40;;;;;;;0.41;100.00;99722.45;103594;1303;22888;-25
2022/04/27 02:14:36;;;;;;;29.50;14.20;;;;;;;0.38;100.00;99719.17;103525;1303;23612;-25
2022/04/27 02:17:05;;;;;;;17.60;10.10;;;;;;;0.39;100.00;99719.32;103612;1303;23579;-30
2022/04/27 02:19:34;;;;;;;19.30;10.20;;;;;;;0.43;100.00;99724.30;103525;1303;25009;-27
2022/04/27 02:22:04;;;;;;;23.00;11.40;;;;;;;0.38;100.00;99723.45;103506;1303;24290;-25
2022/04/27 02:24:33;;;;;;;14.70;9.20;;;;;;;0.37;100.00;99725.66;103564;1303;23776;-29
2022/04/27 02:27:02;;;;;;;10.40;6.80;;;;;;;0.41;100.00;99721.25;103570;1303;23857;-26
2022/04/27 02:29:31;;;;;;;18.10;9.80;;;;;;;0.45;100.00;99726.77;103551;1303;23872;-25
2022/04/27 02:32:00;;;;;;;17.70;10.30;;;;;;;0.45;100.00;99727.45;103540;1303;22721;-29
2022/04/27 02:34:28;;;;;;;19.80;11.40;;;;;;;0.45;100.00;99727.25;103488;1303;24457;-30
2022/04/27 02:36:58;;;;;;;18.40;11.50;;;;;;;0.43;100.00;99727.06;103561;1303;24236;-24
2022/04/27 02:39:27;;;;;;;25.60;11.20;;;;;;;0.41;100.00;99726.85;103548;1302;25531;-25
2022/04/27 02:41:56;;;;;;;15.60;10.20;;;;;;;0.40;100.00;99728.37;103546;1303;23948;-25
2022/04/27 02:44:25;;;;;;;17.60;9.90;;;;;;;0.39;100.00;99731.49;103510;1303;25154;-29
2022/04/27 02:46:54;;;;;;;12.40;8.10;;;;;;;0.36;99.99;99731.38;103555;1302;24999;-29
2022/04/27 02:51:55;;;;;;;21.70;11.20;;;;;;;0.34;100.00;99728.89;103561;1303;23604;-29
2022/04/27 02:54:24;;;;;;;10.50;6.50;;;;;;;0.35;100.00;99727.95;103534;1303;23775;-28
2022/04/27 02:56:54;;;;;;;10.30;6.70;;;;;;;0.35;100.00;99727.86;103558;1303;23520;-29
2022/04/27 02:59:23;;;;;;;9.20;6.90;;;;;;;0.36;100.00;99732.93;103523;1303;24138;-29
2022/04/27 03:01:52;;;;;;;13.60;8.50;;;;;;;0.35;100.00;99733.54;103588;1303;22512;-25
2022/04/27 03:04:21;;;;;;;14.30;6.60;;;;;;;0.30;100.00;99732.89;103591;1303;22498;-25
2022/04/27 03:06:50;;;;;;;11.70;7.90;;;;;;;0.29;100.00;99733.34;103505;1303;24964;-29
2022/04/27 03:09:20;;;;;;;10.80;7.00;;;;;;;0.21;100.00;99729.36;103523;1303;24304;-25
2022/04/27 03:11:49;;;;;;;10.20;7.10;;;;;;;0.17;100.00;99731.63;103575;1302;24993;-29
2022/04/27 03:14:19;;;;;;;13.70;8.30;;;;;;;0.14;100.00;99734.66;103592;1303;25275;-25
2022/04/27 03:16:48;;;;;;;10.20;7.30;;;;;;;0.10;100.00;99737.69;103525;1303;22920;-25
2022/04/27 03:19:17;;;;;;;17.90;9.50;;;;;;;0.07;100.00;99737.25;103603;1303;23062;-30
2022/04/27 03:21:47;;;;;;;18.80;10.10;;;;;;;0.06;100.00;99737.28;103562;1303;23534;-30
2022/04/27 03:24:16;;;;;;;14.70;8.70;;;;;;;0.00;100.00;99744.77;103565;1303;22755;-27
2022/04/27 03:26:47;;;;;;;14.60;9.10;;;;;;;-0.05;100.00;99744.48;103552;1302;22708;-27
2022/04/27 03:29:16;;;;;;;14.50;8.80;;;;;;;-0.15;100.00;99745.45;103558;1303;24918;-28
2022/04/27 03:31:46;;;;;;;16.30;11.80;;;;;;;-0.22;100.00;99746.02;103545;1302;26007;-28
2022/04/27 03:34:15;;;;;;;15.70;9.50;;;;;;;-0.21;100.00;99750.29;103496;1302;22524;-30
2022/04/27 03:36:44;;;;;;;16.20;11.40;;;;;;;-0.23;100.00;99749.05;103525;1303;24974;-31
2022/04/27 03:39:13;;;;;;;17.40;10.00;;;;;;;-0.21;100.00;99748.04;103517;1303;23801;-29
2022/04/27 03:41:42;;;;;;;22.50;11.80;;;;;;;-0.20;100.00;99754.78;103557;1303;24990;-26
2022/04/27 03:44:11;;;;;;;20.50;13.80;;;;;;;-0.15;100.00;99756.31;103581;1303;25098;-25
2022/04/27 03:46:40;;;;;;;15.80;11.00;;;;;;;-0.09;100.00;99755.66;103533;1303;24237;-28
2022/04/27 03:49:09;;;;;;;17.90;9.40;;;;;;;-0.03;100.00;99759.84;103539;1303;23609;-29
2022/04/27 03:51:37;;;;;;;17.50;8.60;;;;;;;-0.03;100.00;99756.30;103520;1303;24249;-29
2022/04/27 03:54:07;;;;;;;18.50;10.00;;;;;;;0.05;100.00;99760.23;103512;1303;24199;-29
2022/04/27 03:56:36;;;;;;;13.40;9.40;;;;;;;0.21;100.00;99756.84;103524;1303;23911;-26
2022/04/27 03:59:04;;;;;;;15.30;10.20;;;;;;;0.39;100.00;99755.91;103533;1303;24976;-30
2022/04/27 04:01:33;;;;;;;19.20;9.20;;;;;;;0.44;100.00;99761.86;103552;1303;24345;-25
2022/04/27 04:04:02;;;;;;;17.30;9.10;;;;;;;0.48;100.00;99769.14;103588;1303;25005;-25
2022/04/27 04:06:32;;;;;;;15.20;10.10;;;;;;;0.58;100.00;99773.30;103546;1303;24982;-29
2022/04/27 04:09:01;;;;;;;20.30;11.40;;;;;;;0.60;100.00;99773.13;103511;1303;24470;-26
2022/04/27 04:11:30;;;;;;;21.90;11.30;;;;;;;0.55;100.00;99779.55;103568;1303;22638;-28
2022/04/27 04:13:59;;;;;;;22.10;12.00;;;;;;;0.55;100.00;99779.52;103607;1303;25233;-25
2022/04/27 04:16:28;;;;;;;12.10;7.50;;;;;;;0.79;100.00;99781.85;103281;1303;406719;-29
2022/04/27 04:18:57;;;;;;;16.10;8.70;;;;;;;0.87;100.00;99784.69;103591;1303;22948;-29
2022/04/27 04:21:26;;;;;;;22.30;10.90;;;;;;;0.85;100.00;99789.20;103616;1303;24230;-24
2022/04/27 04:23:55;;;;;;;16.90;9.40;;;;;;;0.91;100.00;99795.11;103591;1303;24307;-25
2022/04/27 04:28:57;;;;;;;15.60;9.70;;;;;;;1.01;100.00;99802.95;103567;1302;25133;-26
2022/04/27 04:31:26;;;;;;;21.40;14.20;;;;;;;1.14;100.00;99805.02;103571;1303;22611;-29
2022/04/27 04:33:55;;;;;;;27.70;15.30;;;;;;;1.37;100.00;99804.86;103571;1303;22514;-25
2022/04/27 04:36:24;;;;;;;28.70;15.00;;;;;;;1.73;100.00;99806.48;103577;1303;25108;-28
2022/04/27 04:38:53;;;;;;;31.90;18.10;;;;;;;2.21;100.00;99810.98;103587;1303;22629;-28
2022/04/27 04:41:23;;;;;;;34.50;18.70;;;;;;;2.65;100.00;99809.05;103533;1303;24297;-24
2022/04/27 04:43:52;;;;;;;29.00;18.80;;;;;;;3.04;100.00;99812.30;103586;1303;24212;-23
2022/04/27 04:46:21;;;;;;;42.70;15.50;;;;;;;3.33;100.00;99805.93;103529;1303;24246;-25
2022/04/27 04:48:50;;;;;;;21.80;13.50;;;;;;;3.57;100.00;99814.69;103558;1303;24208;-25
2022/04/27 04:51:19;;;;;;;21.40;13.70;;;;;;;3.76;100.00;99818.98;103512;1303;23933;-25
2022/04/27 04:53:48;;;;;;;30.70;18.10;;;;;;;3.96;99.89;99817.14;103562;1303;23744;-25
2022/04/27 04:56:17;;;;;;;35.50;17.70;;;;;;;4.20;99.60;99818.08;103522;1303;24400;-28
2022/04/27 04:58:46;;;;;;;40.10;19.90;;;;;;;4.48;98.48;99821.60;103608;1303;24992;-24
2022/04/27 05:01:15;;;;;;;42.30;20.90;;;;;;;4.85;98.15;99817.83;103550;1303;23905;-29
2022/04/27 05:03:44;;;;;;;40.10;19.60;;;;;;;5.09;93.09;99820.23;103545;1303;22498;-28
2022/04/27 05:06:14;;;;;;;39.70;22.90;;;;;;;5.29;90.96;99821.33;103573;1303;24284;-28
2022/04/27 05:08:43;;;;;;;38.40;20.90;;;;;;;5.51;89.69;99823.09;103565;1303;25092;-25
2022/04/27 05:11:12;;;;;;;32.60;18.60;;;;;;;5.69;87.90;99827.13;103550;1303;23960;-24
2022/04/27 05:13:41;;;;;;;31.40;17.80;;;;;;;5.87;88.08;99827.91;103554;1303;24361;-28
2022/04/27 05:16:10;;;;;;;29.00;17.90;;;;;;;6.04;88.39;99832.05;103588;1303;24689;-25
2022/04/27 05:18:39;;;;;;;23.80;16.10;;;;;;;6.37;88.53;99837.64;103485;1303;23599;-31
2022/04/27 05:21:07;;;;;;;31.40;17.90;;;;;;;6.54;87.01;99839.40;103523;1302;23612;-29
2022/04/27 05:23:36;;;;;;;20.10;15.10;;;;;;;6.73;91.14;99841.44;103397;1303;24967;-29
2022/04/27 05:26:07;;;;;;;22.10;16.00;;;;;;;6.96;92.18;99842.77;103571;1303;22636;-29
2022/04/27 05:33:40;;;;;;;34.00;15.10;;;;;;;7.63;96.93;99845.02;103495;1303;24397;-25
2022/04/27 05:36:11;;;;;;;26.60;18.20;;;;;;;7.68;96.89;99848.39;103524;1303;25279;-28
2022/04/27 05:38:40;;;;;;;19.40;15.20;;;;;;;7.77;98.46;99853.20;103622;1303;22833;-28
2022/04/27 05:41:09;;;;;;;27.80;18.20;;;;;;;7.77;98.79;99857.08;103267;1304;22982;-25
2022/04/27 05:43:38;;;;;;;29.10;20.30;;;;;;;7.88;99.72;99859.21;103510;1303;24214;-25
2022/04/27 05:46:08;;;;;;;30.30;17.70;;;;;;;7.84;99.87;99859.19;103491;1303;23159;-23
2022/04/27 05:48:37;;;;;;;23.00;15.20;;;;;;;7.92;100.00;99863.99;103565;1303;22912;-25
2022/04/27 05:51:06;;;;;;;16.30;13.30;;;;;;;8.02;100.00;99867.40;103532;1303;22502;-29
2022/04/27 05:53:35;;;;;;;18.50;12.90;;;;;;;8.01;100.00;99874.25;103510;1303;24413;-29
2022/04/27 05:56:04;;;;;;;16.60;12.60;;;;;;;8.08;100.00;99874.62;103510;1303;24342;-25
2022/04/27 05:58:33;;;;;;;16.90;13.40;;;;;;;8.24;99.85;99875.09;103528;1303;24435;-30
2022/04/27 06:01:02;;;;;;;13.00;9.50;;;;;;;8.41;98.88;99875.38;103504;1303;24249;-25
2022/04/27 06:03:31;;;;;;;17.60;12.40;;;;;;;8.66;98.38;99876.83;103566;1303;24453;-25
2022/04/27 06:06:00;;;;;;;24.50;13.30;;;;;;;8.63;95.12;99880.27;103539;1303;24302;-26
2022/04/27 06:08:29;;;;;;;17.20;11.30;;;;;;;8.65;94.83;99879.98;103497;1303;22500;-29
2022/04/27 06:10:58;;;;;;;10.50;8.60;;;;;;;8.91;96.24;99879.82;103543;1303;24351;-29
2022/04/27 06:13:27;;;;;;;23.60;11.50;;;;;;;8.99;94.16;99881.70;103591;1302;22843;-28
2022/04/27 06:15:57;;;;;;;15.70;11.50;;;;;;;9.14;93.05;99885.55;103598;1303;22721;-31
2022/04/27 06:18:26;;;;;;;19.30;15.50;;;;;;;9.23;92.80;99886.13;103517;1303;23749;-30
2022/04/27 06:20:56;;;;;;;23.00;16.80;;;;;;;9.75;92.70;99887.80;103614;1303;25008;-26
2022/04/27 06:23:25;;;;;;;26.40;18.90;;;;;;;10.09;89.44;99890.20;103499;1303;24225;-25
2022/04/27 06:25:54;;;;;;;23.70;18.40;;;;;;;10.37;87.48;99894.80;103527;1303;22778;-26
2022/04/27 06:28:23;;;;;;;28.90;21.00;;;;;;;10.82;90.47;99896.89;103362;1303;23640;-25
2022/04/27 06:30:51;;;;;;;30.60;22.50;;;;;;;11.16;87.34;99898.17;103620;1303;24231;-29
2022/04/27 06:33:21;;;;;;;27.40;21.80;;;;;;;11.32;85.88;99896.75;103585;1303;24317;-25
2022/04/27 06:35:50;;;;;;;27.70;20.60;;;;;;;11.59;89.22;99896.47;103476;1303;23201;-25
2022/04/27 06:38:19;;;;;;;30.00;18.90;;;;;;;11.58;91.07;99902.05;103541;1303;24456;-25
2022/04/27 06:40:48;;;;;;;26.90;19.70;;;;;;;11.64;89.13;99903.16;103537;1303;24298;-29
2022/04/27 06:43:17;;;;;;;29.10;19.80;;;;;;;11.89;91.26;99906.73;103557;1302;23795;-29
2022/04/27 06:45:47;;;;;;;25.50;19.30;;;;;;;12.05;90.78;99907.68;103561;1303;24259;-25
2022/04/27 06:48:16;;;;;;;31.60;22.80;;;;;;;12.37;89.95;99905.99;103604;1302;22516;-29
2022/04/27 06:50:44;;;;;;;30.10;21.00;;;;;;;12.64;80.58;99910.24;103592;1303;23937;-26
2022/04/27 06:53:13;;;;;;;32.00;21.90;;;;;;;12.91;80.60;99909.59;103549;1303;24211;-27
2022/04/27 06:55:42;;;;;;;26.10;19.70;;;;;;;13.14;74.01;99912.88;103555;1303;24515;-25
2022/04/27 06:58:11;;;;;;;30.20;23.10;;;;;;;13.38;80.30;99917.31;103564;1303;24394;-29
2022/04/27 07:00:40;;;;;;;29.50;16.10;;;;;;;13.61;77.06;99920.23;103573;1303;24033;-25
2022/04/27 07:03:09;;;;;;;16.20;14.30;;;;;;;13.86;92.32;99916.45;103460;1303;24403;-25
2022/04/27 07:05:38;;;;;;;20.70;15.90;;;;;;;13.92;85.03;99919.58;103499;1303;24301;-27
2022/04/27 07:08:07;;;;;;;20.50;15.30;;;;;;;14.11;82.70;99924.41;103573;1303;24483;-25
2022/04/27 07:10:36;;;;;;;20.10;16.50;;;;;;;14.36;82.56;99921.05;103560;1303;22509;-29
2022/04/27 07:13:05;;;;;;;19.50;13.30;;;;;;;14.49;78.38;99924.80;103559;1303;24445;-29
2022/04/27 07:15:34;;;;;;;16.30;12.70;;;;;;;14.56;83.65;99923.91;103559;1303;22513;-25
2022/04/27 07:18:03;;;;;;;15.40;11.40;;;;;;;14.48;83.48;99931.35;103570;1303;22500;-29
2022/04/27 07:20:33;;;;;;;13.40;11.90;;;;;;;14.44;84.52;99934.88;103515;1303;24237;-25
2022/04/27 07:23:02;;;;;;;13.50;11.90;;;;;;;14.22;79.10;99937.64;103586;1303;22504;-25
2022/04/27 07:25:31;;;;;;;15.40;12.60;;;;;;;14.27;71.77;99943.05;103582;1303;22496;-25
2022/04/27 07:28:00;;;;;;;18.40;13.70;;;;;;;14.49;76.17;99940.45;103524;1303;23642;-29
2022/04/27 07:30:29;;;;;;;16.30;13.20;;;;;;;14.53;72.57;99948.39;103622;1303;22498;-27
2022/04/27 07:32:58;;;;;;;14.40;11.90;;;;;;;14.77;73.57;99946.21;103372;1303;23773;-27
2022/04/27 07:35:27;;;;;;;15.30;11.90;;;;;;;15.01;78.56;99949.98;103516;1303;24215;-25
2022/04/27 07:37:56;;;;;;;17.40;12.70;;;;;;;15.08;76.66;99955.69;103360;1303;24968;-25
2022/04/27 07:40:24;;;;;;;18.10;14.40;;;;;;;15.26;79.38;99952.42;103563;1303;24192;-31
2022/04/27 07:42:55;;;;;;;19.50;15.30;;;;;;;15.18;67.19;99957.31;103563;1303;24041;-31
2022/04/27 07:45:24;;;;;;;15.90;13.80;;;;;;;15.19;62.84;99960.35;103553;1303;23626;-31
2022/04/27 07:47:53;;;;;;;24.30;16.50;;;;;;;15.51;73.26;99960.58;103614;1303;23058;-28
2022/04/27 07:50:22;;;;;;;17.40;15.60;;;;;;;15.79;76.09;99960.88;103536;1303;23807;-24
2022/04/27 07:52:51;;;;;;;19.00;14.10;;;;;;;16.19;76.11;99961.92;103516;1303;24220;-28
2022/04/27 07:55:20;;;;;;;17.40;14.70;;;;;;;16.61;74.45;99954.45;103621;1302;22730;-29
2022/04/27 07:57:50;;;;;;;17.70;12.70;;;;;;;16.46;59.11;99961.25;103540;1303;22501;-30
2022/04/27 08:00:19;;;;;;;11.20;8.70;;;;;;;15.91;59.55;99960.63;103601;1303;25025;-31
2022/04/27 08:02:48;;;;;;;19.00;14.50;;;;;;;14.61;61.36;99965.45;103575;1303;24306;-25
2022/04/27 08:05:17;;;;;;;20.70;13.90;;;;;;;15.27;66.83;99966.02;103551;1302;25005;-25
2022/04/27 08:07:46;;;;;;;20.20;14.20;;;;;;;15.86;71.08;99964.45;103566;1303;24380;-25
2022/04/27 08:10:17;;;;;;;15.60;13.90;;;;;;;16.45;68.27;99965.27;103564;1303;23761;-29
2022/04/27 08:12:47;;;;;;;16.40;13.10;;;;;;;16.83;67.71;99962.57;103565;1303;24085;-25
2022/04/27 08:15:17;;;;;;;14.40;12.20;;;;;;;16.57;64.27;99969.08;103328;1303;23516;-28
2022/04/27 08:17:51;;;;;;;11.80;10.20;;;;;;;16.33;57.01;99974.23;103593;1303;24233;-24
2022/04/27 08:22:54;;;;;;;14.40;12.20;;;;;;;16.85;67.80;99970.01;103589;1303;22722;-31
2022/04/27 08:25:23;;;;;;;14.60;11.00;;;;;;;16.83;56.81;99976.34;103514;1303;24995;-27
2022/04/27 08:27:52;;;;;;;12.30;11.00;;;;;;;17.32;64.83;99971.52;103573;1303;24261;-27
2022/04/27 08:30:21;;;;;;;14.20;9.80;;;;;;;17.82;66.00;99972.51;103366;1303;24357;-27
2022/04/27 08:32:50;;;;;;;9.10;7.30;;;;;;;17.73;54.93;99975.80;103571;1302;24297;-29
2022/04/27 08:35:19;;;;;;;9.20;8.20;;;;;;;16.96;52.08;99979.81;103590;1303;24371;-25
2022/04/27 08:37:47;;;;;;;9.70;7.50;;;;;;;17.06;56.45;99975.32;103455;1303;22624;-25
2022/04/27 08:40:16;;;;;;;9.20;8.20;;;;;;;16.98;54.82;99979.34;103501;1303;22846;-29
2022/04/27 08:42:47;;;;;;;12.70;7.90;;;;;;;17.37;58.45;99976.61;103534;1303;24093;-25
2022/04/27 08:45:17;;;;;;;9.00;6.90;;;;;;;17.77;59.24;99976.34;103523;1303;24208;-25
2022/04/27 08:47:46;;;;;;;9.10;7.30;;;;;;;17.35;54.51;99976.85;103529;1302;22501;-29
2022/04/27 08:50:17;;;;;;;10.40;7.70;;;;;;;17.54;58.24;99976.88;103544;1303;22863;-28
2022/04/27 08:52:47;;;;;;;9.40;6.50;;;;;;;17.95;58.52;99972.29;103520;1303;24217;-28
2022/04/27 08:55:17;;;;;;;4.60;4.10;;;;;;;17.29;52.30;99977.61;103500;1303;24977;-25
2022/04/27 08:57:47;;;;;;;5.90;5.40;;;;;;;17.22;53.05;99974.52;103587;1303;25002;-25
2022/04/27 09:00:17;;;;;;;9.10;6.60;;;;;;;17.22;52.20;99977.58;103568;1303;25324;-29
2022/04/27 09:02:48;;;;;;;7.30;6.50;;;;;;;17.69;54.63;99976.61;103529;1303;23601;-29
2022/04/27 09:05:19;;;;;;;8.00;5.60;;;;;;;17.83;52.62;99976.86;103573;1303;24220;-29
2022/04/27 09:07:50;;;;;;;6.10;5.50;;;;;;;18.06;52.41;99978.67;103549;1303;23903;-24
2022/04/27 09:10:21;;;;;;;10.10;6.60;;;;;;;17.50;50.00;99979.75;103549;1303;25223;-27
2022/04/27 09:12:51;;;;;;;8.90;5.80;;;;;;;17.31;50.04;99983.06;103613;1303;22639;-28
2022/04/27 09:15:23;;;;;;;8.00;6.80;;;;;;;17.72;51.41;99985.66;103586;1303;25401;-28
2022/04/27 09:22:58;;;;;;;5.90;5.20;;;;;;;17.39;53.87;99979.71;103566;1303;24218;-25
2022/04/27 09:25:31;;;;;;;20.70;5.30;;;;;;;17.81;53.34;99982.67;103504;1303;24335;-25
2022/04/27 09:28:02;;;;;;;5.00;4.40;;;;;;;18.23;52.21;99982.55;103566;1302;24246;-25
2022/04/27 09:30:32;;;;;;;5.90;5.10;;;;;;;17.23;50.02;99982.49;103554;1303;23923;-29
2022/04/27 09:33:01;;;;;;;7.80;4.20;;;;;;;17.17;48.77;99977.95;103529;1303;24288;-25
2022/04/27 09:35:32;;;;;;;1.90;1.60;;;;;;;16.94;47.06;99984.23;103538;1303;25374;-25
2022/04/27 09:38:08;;;;;;;4.10;2.50;;;;;;;17.13;47.40;99983.23;103567;1303;25362;-25
2022/04/27 09:40:43;;;;;;;3.10;2.00;;;;;;;17.19;44.66;99978.45;103461;1303;24360;-25
2022/04/27 09:43:13;;;;;;;5.10;3.70;;;;;;;16.91;44.53;99983.25;103506;1303;22511;-25
2022/04/27 09:45:43;;;;;;;2.60;2.00;;;;;;;17.44;46.45;99979.95;103559;1303;24288;-29
2022/04/27 09:48:20;;;;;;;5.10;4.10;;;;;;;17.84;47.96;99979.91;103562;1303;24333;-29
2022/04/27 09:50:52;;;;;;;4.70;3.40;;;;;;;18.35;45.54;99975.82;103543;1303;24293;-25
2022/04/27 09:53:21;;;;;;;3.20;2.80;;;;;;;17.21;45.58;99979.19;103605;1303;23528;-25
2022/04/27 09:55:53;;;;;;;3.50;2.60;;;;;;;16.51;46.00;99977.98;103371;1303;22514;-24
2022/04/27 09:58:24;;;;;;;4.90;3.80;;;;;;;16.34;46.12;99975.27;103584;1303;26196;-29
2022/04/27 10:00:56;;;;;;;9.50;5.20;;;;;;;16.09;47.31;99976.95;103578;1303;24375;-24
2022/04/27 10:03:25;;;;;;;6.00;2.90;;;;;;;15.87;48.48;99978.83;103556;1303;23799;-26
2022/04/27 10:05:54;;;;;;;5.30;2.40;;;;;;;15.71;47.84;99978.00;103568;1303;23609;-30
2022/04/27 10:08:23;;;;;;;6.10;2.10;;;;;;;15.78;47.07;99976.84;103563;1303;23600;-30
2022/04/27 10:10:52;;;;;;;3.80;2.30;;;;;;;15.31;46.19;99976.87;103569;1303;22506;-30
2022/04/27 10:13:21;;;;;;;9.50;2.00;;;;;;;14.87;45.35;99979.77;103543;1303;24299;-25
2022/04/27 10:15:50;;;;;;;4.10;2.10;;;;;;;14.78;46.44;99983.12;103557;1303;23472;-25
2022/04/27 10:18:19;;;;;;;4.70;3.40;;;;;;;14.92;47.45;99983.05;103526;1303;24207;-25
2022/04/27 10:20:49;;;;;;;5.60;3.30;;;;;;;15.31;48.13;99980.96;103512;1303;23843;-24
2022/04/27 10:23:19;;;;;;;5.20;3.20;;;;;;;15.16;48.02;99983.20;103582;1303;24378;-28
2022/04/27 10:25:55;;;;;;;4.30;2.60;;;;;;;15.20;46.73;99983.63;103361;1303;23181;-25
2022/04/27 10:28:24;;;;;;;4.30;2.70;;;;;;;15.10;46.77;99983.32;103587;1303;23520;-28
2022/04/27 10:30:55;;;;;;;3.70;2.50;;;;;;;15.18;46.45;99983.71;103566;1301;23846;-28
2022/04/27 10:33:31;;;;;;;7.40;3.70;;;;;;;15.39;46.94;99983.40;103493;1303;22525;-24
2022/04/27 10:36:20;;;;;;;3.20;2.00;;;;;;;15.59;47.46;99986.02;103571;1303;23920;-29
2022/04/27 10:38:56;;;;;;;4.20;2.10;;;;;;;15.27;45.56;99985.52;103567;1303;22610;-30
2022/04/27 10:41:25;;;;;;;3.80;3.40;;;;;;;15.37;46.48;99978.80;103520;1301;24957;-29
2022/04/27 10:43:54;;;;;;;3.50;2.70;;;;;;;15.57;45.56;99982.44;103551;1303;22534;-27
2022/04/27 10:46:30;;;;;;;2.50;2.10;;;;;;;15.76;44.19;99982.35;103508;1303;22496;-29
2022/04/27 10:48:59;;;;;;;5.00;2.90;;;;;;;15.71;43.44;99982.27;103496;1303;24213;-29
2022/04/27 10:51:47;;;;;;;4.80;2.90;;;;;;;16.05;44.63;99982.52;103566;1303;22801;-25
2022/04/27 10:54:16;;;;;;;2.80;2.10;;;;;;;16.61;43.97;99973.17;103554;1303;24313;-29
2022/04/27 10:56:45;;;;;;;2.10;1.70;;;;;;;16.54;41.50;99969.70;103579;1303;22514;-29
2022/04/27 10:59:21;;;;;;;1.30;1.00;;;;;;;17.16;38.68;99966.98;103504;1303;23680;-25
2022/04/27 11:01:52;;;;;;;1.30;1.20;;;;;;;17.20;36.62;99965.03;103575;1303;25096;-24
2022/04/27 11:04:21;;;;;;;1.80;1.20;;;;;;;18.07;36.74;99966.19;103556;1303;25207;-29
2022/04/27 11:07:01;;;;;;;3.60;1.60;;;;;;;18.41;35.56;99964.21;103573;1303;25111;-30
2022/04/27 11:09:38;;;;;;;3.70;1.30;;;;;;;18.51;33.93;99962.69;103551;1303;24248;-29
2022/04/27 11:12:08;;;;;;;3.30;1.20;;;;;;;18.37;33.50;99963.91;103474;1303;24208;-25
2022/04/27 11:14:37;;;;;;;1.90;1.20;;;;;;;18.30;33.94;99962.35;103517;1303;24437;-25
2022/04/27 11:17:06;;;;;;;1.90;1.40;;;;;;;18.98;34.33;99960.81;103623;1303;24215;-29
2022/04/27 11:19:36;;;;;;;1.40;1.10;;;;;;;19.70;32.52;99956.23;103610;1303;22501;-29
2022/04/27 11:22:12;;;;;;;2.50;1.60;;;;;;;19.49;32.84;99960.53;103471;1303;22638;-29
2022/04/27 11:24:42;;;;;;;2.20;1.60;;;;;;;19.57;34.74;99962.34;103503;1303;23867;-29
2022/04/27 11:27:11;;;;;;;6.10;2.00;;;;;;;19.82;33.71;99961.72;103568;1303;24294;-25
2022/04/27 11:29:40;;;;;;;2.60;1.00;;;;;;;20.04;32.97;99965.06;103557;1303;24352;-25
2022/04/27 11:32:10;;;;;;;10.20;2.50;;;;;;;19.97;31.35;99964.23;103541;1303;24216;-25
2022/04/27 11:34:39;;;;;;;3.80;1.40;;;;;;;19.92;30.44;99967.09;103549;1303;24308;-25
2022/04/27 11:37:13;;;;;;;1.90;1.30;;;;;;;19.78;30.09;99962.06;103688;1303;23470;-28
2022/04/27 11:39:43;;;;;;;5.30;2.00;;;;;;;19.09;31.15;99962.56;103646;1303;24210;-25
2022/04/27 11:42:13;;;;;;;2.70;2.10;;;;;;;18.58;34.65;99964.98;103586;1303;24215;-25
2022/04/27 11:44:43;;;;;;;5.40;2.00;;;;;;;18.11;36.38;99958.85;103564;1303;22793;-28
2022/04/27 11:47:19;;;;;;;3.00;2.10;;;;;;;17.66;36.99;99969.41;103556;1303;25225;-26
2022/04/27 11:49:54;;;;;;;3.30;2.60;;;;;;;17.28;37.80;99974.55;103533;1303;24218;-30
2022/04/27 11:52:23;;;;;;;3.80;3.10;;;;;;;16.99;38.36;99978.79;103561;1303;22942;-25
2022/04/27 11:54:52;;;;;;;3.30;2.60;;;;;;;16.37;39.49;99986.23;103544;1303;22514;-29
2022/04/27 11:57:22;;;;;;;10.60;2.90;;;;;;;16.10;41.47;99991.20;103579;1303;24674;-26